Time;durP1;ratioP1;P1;durP2;ratioP2;P2;SDS_P1;SDS_P2;PMS_P1;PMS_P2;Temp;Humidity;BMP_temperature;BMP_pressure;BME280_temperature;BME280_humidity;BME280_pressure;Samples;Min_cycle;Max_cycle;Signal;HPM_P1;HPM_P2
2022/04/22 00:00:29;;;;;;;7.40;4.10;;;8.80;99.90;;;;;;4897019;29;20248;-62
2022/04/22 00:02:57;;;;;;;7.23;3.93;;;8.80;99.90;;;;;;4900885;29;20235;-62
2022/04/22 00:05:25;;;;;;;7.00;3.87;;;8.70;99.90;;;;;;4896131;29;20245;-63
2022/04/22 00:07:54;;;;;;;6.47;4.10;;;8.70;99.90;;;;;;4896329;29;20238;-62
2022/04/22 00:10:22;;;;;;;6.93;3.60;;;8.70;99.90;;;;;;4895249;29;20241;-62
2022/04/22 00:12:50;;;;;;;6.20;3.97;;;8.80;99.90;;;;;;4896613;29;20252;-63
2022/04/22 00:15:20;;;;;;;5.63;4.20;;;8.70;99.90;;;;;;4896283;29;20273;-63
2022/04/22 00:17:50;;;;;;;7.33;4.53;;;8.70;99.90;;;;;;4902625;29;20261;-62
2022/04/22 00:20:18;;;;;;;6.87;4.10;;;8.60;99.90;;;;;;4896183;29;20242;-63
2022/04/22 00:22:47;;;;;;;8.30;4.20;;;8.50;99.90;;;;;;4891067;29;20309;-63
2022/04/22 00:25:15;;;;;;;6.37;4.13;;;8.50;99.90;;;;;;4896468;29;20249;-62
2022/04/22 00:27:43;;;;;;;6.30;4.17;;;8.50;99.90;;;;;;4896071;29;20281;-63
2022/04/22 00:30:13;;;;;;;6.83;4.17;;;8.50;99.90;;;;;;4897012;29;20245;-63
2022/04/22 00:32:41;;;;;;;8.90;4.50;;;8.50;99.90;;;;;;4897126;29;20694;-62
2022/04/22 00:35:11;;;;;;;10.23;4.73;;;8.50;99.90;;;;;;4899658;29;20269;-63
2022/04/22 00:37:40;;;;;;;7.30;4.50;;;8.60;99.90;;;;;;4895100;29;20242;-62
2022/04/22 00:40:08;;;;;;;6.47;4.37;;;8.60;99.90;;;;;;4896095;29;20263;-62
2022/04/22 00:42:39;;;;;;;8.33;4.27;;;8.50;99.90;;;;;;4895989;29;20713;-62
2022/04/22 00:45:09;;;;;;;5.43;4.30;;;8.50;99.90;;;;;;4895770;29;20237;-62
2022/04/22 00:47:37;;;;;;;7.37;4.50;;;8.50;99.90;;;;;;4895042;29;20320;-62
2022/04/22 00:50:06;;;;;;;7.77;4.70;;;8.50;99.90;;;;;;4896520;29;20642;-62
2022/04/22 00:52:36;;;;;;;9.37;4.17;;;8.50;99.90;;;;;;4895766;29;20714;-63
2022/04/22 00:55:04;;;;;;;7.37;4.07;;;8.40;99.90;;;;;;4896159;29;20245;-63
2022/04/22 00:57:33;;;;;;;5.63;3.80;;;8.50;99.90;;;;;;4895631;29;20256;-63
2022/04/22 01:00:04;;;;;;;6.80;4.00;;;8.50;99.90;;;;;;4896402;29;20706;-63
2022/04/22 01:02:32;;;;;;;7.00;4.40;;;8.50;99.90;;;;;;4897267;29;20263;-62
2022/04/22 01:10:33;;;;;;;5.80;4.17;;;8.40;99.90;;;;;;4897125;29;20791;-62
2022/04/22 01:13:02;;;;;;;8.30;4.37;;;8.30;99.90;;;;;;4900270;29;20613;-62
2022/04/22 01:15:30;;;;;;;8.90;3.63;;;8.30;99.90;;;;;;4901375;29;20685;-63
2022/04/22 01:17:58;;;;;;;6.83;4.57;;;8.30;99.90;;;;;;4895489;29;20244;-63
2022/04/22 01:20:27;;;;;;;6.70;4.67;;;8.20;99.90;;;;;;4894789;29;20244;-62
2022/04/22 01:22:56;;;;;;;7.17;3.83;;;8.20;99.90;;;;;;4895403;29;20728;-62
2022/04/22 01:25:24;;;;;;;7.07;3.93;;;8.10;99.90;;;;;;4895417;29;20320;-62
2022/04/22 01:27:53;;;;;;;8.43;4.33;;;8.10;99.90;;;;;;4894346;29;20300;-62
2022/04/22 01:30:23;;;;;;;6.93;4.23;;;8.10;99.90;;;;;;4895966;29;20597;-62
2022/04/22 01:32:51;;;;;;;8.53;4.03;;;8.10;99.90;;;;;;4894679;29;20243;-63
2022/04/22 01:35:20;;;;;;;6.57;4.23;;;8.10;99.90;;;;;;4896260;29;20268;-62
2022/04/22 01:37:48;;;;;;;7.57;4.33;;;8.00;99.90;;;;;;4895103;29;20655;-62
2022/04/22 01:40:18;;;;;;;5.13;3.70;;;8.00;99.90;;;;;;4895402;29;20244;-62
2022/04/22 01:42:46;;;;;;;5.23;3.93;;;8.00;99.90;;;;;;4890195;29;20793;-62
2022/04/22 01:45:15;;;;;;;7.37;3.83;;;8.00;99.90;;;;;;4901900;29;20267;-62
2022/04/22 01:47:43;;;;;;;6.40;4.10;;;7.90;99.90;;;;;;4894809;29;20324;-62
2022/04/22 01:50:11;;;;;;;7.60;4.03;;;7.80;99.90;;;;;;4894925;29;20237;-62
2022/04/22 01:52:41;;;;;;;5.30;4.10;;;7.80;99.90;;;;;;4894829;29;20237;-62
2022/04/22 01:55:09;;;;;;;6.93;4.13;;;7.80;99.90;;;;;;4895454;29;20244;-62
2022/04/22 01:57:39;;;;;;;7.03;3.90;;;7.70;99.90;;;;;;4901699;29;20237;-62
2022/04/22 02:00:11;;;;;;;6.07;4.10;;;7.70;99.90;;;;;;4896167;29;20245;-62
2022/04/22 02:02:40;;;;;;;6.20;3.93;;;7.70;99.90;;;;;;4897100;29;20294;-62
2022/04/22 02:05:08;;;;;;;5.53;3.70;;;7.70;99.90;;;;;;4898599;29;20713;-63
2022/04/22 02:07:36;;;;;;;7.73;4.00;;;7.70;99.90;;;;;;4894992;29;20244;-62
2022/04/22 02:10:06;;;;;;;10.10;3.87;;;7.60;99.90;;;;;;4895477;29;20241;-62
2022/04/22 02:12:34;;;;;;;6.37;3.73;;;7.60;99.90;;;;;;4894505;29;20234;-62
2022/04/22 02:15:04;;;;;;;5.33;3.77;;;7.50;99.90;;;;;;4895078;29;20234;-62
2022/04/22 02:17:32;;;;;;;6.53;3.63;;;7.60;99.90;;;;;;4894620;29;20592;-62
2022/04/22 02:20:01;;;;;;;6.50;3.80;;;7.60;99.90;;;;;;4894826;29;20245;-62
2022/04/22 02:22:29;;;;;;;6.70;4.63;;;7.60;99.90;;;;;;4896132;29;20682;-62
2022/04/22 02:24:59;;;;;;;6.27;4.40;;;7.70;99.90;;;;;;4895066;29;20609;-62
2022/04/22 02:30:15;;;;;;;6.80;3.87;;;7.60;99.90;;;;;;4898911;29;20631;-62
2022/04/22 02:32:44;;;;;;;7.17;3.80;;;7.50;99.90;;;;;;4899891;29;20245;-62
2022/04/22 02:35:13;;;;;;;6.60;4.07;;;7.50;99.90;;;;;;4901432;29;20229;-62
2022/04/22 02:37:41;;;;;;;4.30;3.57;;;7.40;99.90;;;;;;4897574;29;20603;-63
2022/04/22 02:40:11;;;;;;;5.53;4.03;;;7.40;99.90;;;;;;4897887;29;20755;-62
2022/04/22 02:45:28;;;;;;;5.97;3.97;;;7.40;99.90;;;;;;4898598;29;20241;-62
2022/04/22 02:47:57;;;;;;;7.53;4.20;;;7.20;99.90;;;;;;4903337;29;20237;-62
2022/04/22 02:50:25;;;;;;;7.67;3.87;;;7.20;99.90;;;;;;4897989;29;20269;-62
2022/04/22 02:52:53;;;;;;;8.27;4.00;;;7.20;99.90;;;;;;4898011;29;20232;-62
2022/04/22 02:55:21;;;;;;;6.87;3.60;;;7.10;99.90;;;;;;4897656;29;20328;-62
2022/04/22 02:57:50;;;;;;;5.50;3.77;;;7.10;99.90;;;;;;4897655;29;20726;-62
2022/04/22 03:03:12;;;;;;;5.83;3.83;;;7.20;99.90;;;;;;4888918;29;20240;-62
2022/04/22 03:05:40;;;;;;;6.87;3.93;;;7.10;99.90;;;;;;4900046;29;20268;-62
2022/04/22 03:08:09;;;;;;;7.10;3.70;;;7.10;99.90;;;;;;4901350;29;20293;-62
2022/04/22 03:10:37;;;;;;;6.80;3.60;;;7.10;99.90;;;;;;4890059;29;20247;-62
2022/04/22 03:13:06;;;;;;;5.77;3.87;;;7.20;99.90;;;;;;4897828;29;20253;-62
2022/04/22 03:15:34;;;;;;;6.83;3.47;;;7.20;99.90;;;;;;4904023;29;20230;-62
2022/04/22 03:18:02;;;;;;;7.30;3.60;;;7.10;99.90;;;;;;4897547;29;20706;-62
2022/04/22 03:20:31;;;;;;;5.87;3.50;;;7.10;99.90;;;;;;4899643;29;20240;-62
2022/04/22 03:22:59;;;;;;;5.67;3.70;;;7.10;99.90;;;;;;4902238;29;20237;-62
2022/04/22 03:25:28;;;;;;;5.63;3.50;;;7.00;99.90;;;;;;4897180;29;20241;-62
2022/04/22 03:27:56;;;;;;;6.23;3.07;;;7.00;99.90;;;;;;4897075;29;20289;-62
2022/04/22 03:30:24;;;;;;;5.57;3.50;;;7.10;99.90;;;;;;4897880;29;20247;-62
2022/04/22 03:32:52;;;;;;;5.60;3.73;;;7.10;99.90;;;;;;4898802;29;20649;-62
2022/04/22 03:35:20;;;;;;;7.10;3.43;;;7.10;99.90;;;;;;4898932;29;20241;-63
2022/04/22 03:37:50;;;;;;;5.60;3.53;;;7.00;99.90;;;;;;4889220;29;20716;-62
2022/04/22 03:40:18;;;;;;;5.63;3.63;;;7.00;99.90;;;;;;4888570;29;20324;-62
2022/04/22 03:42:46;;;;;;;5.40;3.27;;;6.90;99.90;;;;;;4888557;29;20241;-62
2022/04/22 03:45:14;;;;;;;4.57;3.47;;;6.90;99.90;;;;;;4899926;29;20240;-62
2022/04/22 03:47:42;;;;;;;4.07;3.17;;;6.80;99.90;;;;;;4896556;29;20713;-62
2022/04/22 03:50:10;;;;;;;5.30;3.60;;;6.80;99.90;;;;;;4897042;29;20769;-62
2022/04/22 03:52:38;;;;;;;6.77;3.30;;;6.70;99.90;;;;;;4896704;29;20321;-62
2022/04/22 03:55:09;;;;;;;5.33;3.53;;;6.60;99.90;;;;;;4897461;29;20297;-62
2022/04/22 04:00:22;;;;;;;6.00;3.57;;;6.60;99.90;;;;;;4896999;29;20644;-62
2022/04/22 04:02:51;;;;;;;5.77;3.57;;;6.70;99.90;;;;;;4902379;29;20237;-62
2022/04/22 04:05:19;;;;;;;5.30;3.27;;;6.70;99.90;;;;;;4896182;29;20248;-62
2022/04/22 04:07:47;;;;;;;3.50;2.93;;;6.70;99.90;;;;;;4890067;29;20240;-62
2022/04/22 04:16:00;;;;;;;6.17;3.07;;;6.60;99.90;;;;;;4895219;29;20633;-62
2022/04/22 04:18:30;;;;;;;8.37;3.60;;;6.60;99.90;;;;;;4896128;29;20304;-62
2022/04/22 04:23:46;;;;;;;5.13;3.13;;;6.70;99.90;;;;;;4890775;29;20796;-62
2022/04/22 04:26:16;;;;;;;5.17;3.33;;;6.70;99.90;;;;;;4896091;29;20237;-62
2022/04/22 04:28:47;;;;;;;5.57;3.00;;;6.70;99.90;;;;;;4896125;29;21412;-62
2022/04/22 04:31:16;;;;;;;5.30;3.07;;;6.70;99.90;;;;;;4896238;29;20714;-62
2022/04/22 04:33:44;;;;;;;5.33;3.07;;;6.80;99.90;;;;;;4895024;29;20238;-62
2022/04/22 04:36:17;;;;;;;7.10;3.67;;;6.80;99.90;;;;;;4895593;29;20289;-62
2022/04/22 04:38:45;;;;;;;6.00;3.20;;;6.90;99.90;;;;;;4895932;29;20237;-62
2022/04/22 04:41:14;;;;;;;5.37;3.23;;;6.90;99.90;;;;;;4902769;29;20241;-62
2022/04/22 04:43:43;;;;;;;5.57;3.17;;;6.80;99.90;;;;;;4895759;29;20245;-62
2022/04/22 04:46:11;;;;;;;5.83;3.30;;;6.90;99.90;;;;;;4909204;29;20261;-62
2022/04/22 04:48:39;;;;;;;4.83;3.07;;;6.90;99.90;;;;;;4895607;29;20245;-62
2022/04/22 04:51:07;;;;;;;4.27;3.17;;;7.00;99.90;;;;;;4902047;29;20780;-62
2022/04/22 04:53:36;;;;;;;5.17;2.80;;;7.10;99.90;;;;;;4895928;29;20255;-62
2022/04/22 04:56:04;;;;;;;4.60;2.97;;;7.20;99.90;;;;;;4901800;29;20240;-62
2022/04/22 04:58:33;;;;;;;3.97;2.87;;;7.20;99.90;;;;;;4899251;29;20248;-62
2022/04/22 05:01:02;;;;;;;6.60;2.80;;;7.30;99.90;;;;;;4895871;29;20296;-62
2022/04/22 05:03:30;;;;;;;7.53;3.63;;;7.50;99.90;;;;;;4896777;29;20581;-62
2022/04/22 05:05:58;;;;;;;6.07;3.53;;;7.50;99.90;;;;;;4900466;29;20275;-62
2022/04/22 05:08:27;;;;;;;5.47;3.20;;;7.50;99.90;;;;;;4896670;29;20721;-62
2022/04/22 05:10:55;;;;;;;4.87;3.37;;;7.60;99.90;;;;;;4900268;29;20241;-62
2022/04/22 05:13:23;;;;;;;12.13;4.33;;;7.70;99.90;;;;;;4897336;29;20656;-62
2022/04/22 05:15:53;;;;;;;6.33;3.83;;;7.80;99.90;;;;;;4904391;29;20241;-63
2022/04/22 05:18:21;;;;;;;7.17;3.27;;;7.80;99.90;;;;;;4895198;29;20308;-63
2022/04/22 05:20:49;;;;;;;6.93;3.97;;;8.00;99.90;;;;;;4895105;29;20253;-63
2022/04/22 05:23:18;;;;;;;4.50;3.60;;;8.10;99.90;;;;;;4896593;29;20245;-63
2022/04/22 05:25:46;;;;;;;5.37;3.40;;;8.10;99.90;;;;;;4895405;29;20268;-63
2022/04/22 05:28:14;;;;;;;4.97;3.50;;;8.10;99.90;;;;;;4895389;29;20241;-63
2022/04/22 05:33:29;;;;;;;6.83;3.73;;;8.20;99.90;;;;;;4894811;29;20269;-63
2022/04/22 05:35:58;;;;;;;4.77;3.80;;;8.30;99.90;;;;;;4895254;29;20247;-63
2022/04/22 05:38:26;;;;;;;7.37;4.23;;;8.50;99.90;;;;;;4895040;29;20651;-63
2022/04/22 05:40:54;;;;;;;5.60;3.83;;;8.60;99.90;;;;;;4895246;29;20241;-63
2022/04/22 05:43:22;;;;;;;7.10;3.80;;;8.70;99.90;;;;;;4895145;29;20610;-63
2022/04/22 05:45:50;;;;;;;7.67;4.37;;;8.80;99.90;;;;;;4901723;29;20244;-63
2022/04/22 05:48:18;;;;;;;5.73;4.07;;;9.00;99.90;;;;;;4893342;29;20245;-63
2022/04/22 05:50:48;;;;;;;6.77;3.80;;;9.20;99.90;;;;;;4894538;29;20248;-63
2022/04/22 05:53:16;;;;;;;7.50;4.00;;;9.30;99.90;;;;;;4895073;29;20677;-63
2022/04/22 05:55:45;;;;;;;6.17;4.17;;;9.50;99.90;;;;;;4894817;29;20609;-63
2022/04/22 05:58:13;;;;;;;7.37;3.50;;;9.50;99.90;;;;;;4894939;29;20241;-63
2022/04/22 06:00:42;;;;;;;5.70;3.90;;;9.50;99.90;;;;;;4895613;29;20745;-63
2022/04/22 06:03:10;;;;;;;5.27;3.80;;;9.40;99.90;;;;;;4900433;29;20290;-63
2022/04/22 06:05:38;;;;;;;7.83;4.00;;;9.60;99.90;;;;;;4892680;29;20598;-63
2022/04/22 06:10:54;;;;;;;7.87;4.00;;;9.60;99.90;;;;;;4884587;29;20241;-63
2022/04/22 06:13:22;;;;;;;6.93;3.60;;;9.60;99.90;;;;;;4898548;29;20249;-63
2022/04/22 06:15:50;;;;;;;5.60;3.47;;;9.60;99.90;;;;;;4905279;29;20261;-63
2022/04/22 06:18:18;;;;;;;6.43;3.80;;;9.70;99.90;;;;;;4898499;29;20253;-63
2022/04/22 06:20:48;;;;;;;5.90;4.30;;;9.80;99.90;;;;;;4904382;29;20244;-63
2022/04/22 06:23:18;;;;;;;7.20;4.33;;;9.90;99.90;;;;;;4901162;29;20242;-63
2022/04/22 06:25:48;;;;;;;6.23;4.00;;;9.90;99.90;;;;;;4898420;29;20247;-63
2022/04/22 06:28:16;;;;;;;6.03;3.77;;;10.10;99.90;;;;;;4898371;29;20372;-63
2022/04/22 06:30:46;;;;;;;6.50;3.80;;;10.30;99.90;;;;;;4901342;29;20253;-63
2022/04/22 06:33:16;;;;;;;6.40;3.50;;;10.50;99.90;;;;;;4900665;29;20289;-63
2022/04/22 06:35:44;;;;;;;8.70;3.67;;;10.60;99.90;;;;;;4898035;29;20698;-63
2022/04/22 06:38:18;;;;;;;5.67;3.50;;;10.60;99.90;;;;;;4898158;29;20257;-63
2022/04/22 06:46:19;;;;;;;7.23;4.10;;;11.10;99.90;;;;;;4907177;29;20325;-63
2022/04/22 06:48:48;;;;;;;5.27;3.40;;;11.20;99.90;;;;;;4897905;29;20239;-63
2022/04/22 06:51:19;;;;;;;3.90;2.83;;;11.40;99.90;;;;;;4898060;29;20655;-63
2022/04/22 06:53:51;;;;;;;5.43;3.33;;;11.50;99.90;;;;;;4898013;29;20759;-63
2022/04/22 06:56:26;;;;;;;6.53;3.60;;;11.60;99.90;;;;;;4897417;29;20727;-62
2022/04/22 06:58:55;;;;;;;7.43;3.40;;;11.60;99.90;;;;;;4897907;29;20246;-62
2022/04/22 07:01:24;;;;;;;5.70;3.60;;;11.60;99.90;;;;;;4904628;29;20246;-63
2022/04/22 07:04:13;;;;;;;6.43;3.50;;;11.70;99.90;;;;;;4897323;29;20283;-63
2022/04/22 07:06:42;;;;;;;6.33;3.50;;;11.80;99.90;;;;;;4897519;29;20623;-63
2022/04/22 07:09:13;;;;;;;5.20;3.17;;;12.00;99.90;;;;;;4905258;29;20269;-63
2022/04/22 07:11:42;;;;;;;7.83;3.70;;;12.30;99.90;;;;;;4897589;29;20302;-63
2022/04/22 07:14:11;;;;;;;6.60;3.63;;;12.40;99.90;;;;;;4896895;29;20278;-63
2022/04/22 07:16:44;;;;;;;5.70;3.10;;;12.50;99.90;;;;;;4894952;29;20265;-63
2022/04/22 07:19:12;;;;;;;6.67;3.23;;;12.60;99.90;;;;;;4896850;29;20246;-63
2022/04/22 07:21:45;;;;;;;7.37;3.50;;;12.60;99.90;;;;;;4887202;29;20345;-63
2022/04/22 07:24:17;;;;;;;6.93;3.37;;;12.80;99.90;;;;;;4897400;29;20653;-63
2022/04/22 07:26:45;;;;;;;4.03;3.00;;;13.00;99.90;;;;;;4897346;29;20335;-63
2022/04/22 07:29:15;;;;;;;6.53;2.87;;;13.20;99.90;;;;;;4897210;29;20244;-63
2022/04/22 07:31:43;;;;;;;5.53;3.37;;;13.10;99.90;;;;;;4903717;29;20236;-63
2022/04/22 07:34:12;;;;;;;4.47;2.90;;;13.10;99.90;;;;;;4897027;29;20719;-63
2022/04/22 07:36:41;;;;;;;5.20;2.97;;;13.20;99.90;;;;;;4889659;29;20240;-63
2022/04/22 07:39:11;;;;;;;4.73;3.00;;;13.00;99.90;;;;;;4897138;29;20304;-63
2022/04/22 07:41:41;;;;;;;3.43;2.67;;;13.00;99.90;;;;;;4896940;29;20295;-63
2022/04/22 07:47:02;;;;;;;6.37;3.23;;;13.50;99.90;;;;;;4894098;29;20704;-63
2022/04/22 07:49:32;;;;;;;4.17;3.27;;;13.70;99.90;;;;;;4894400;29;20267;-63
2022/04/22 07:52:00;;;;;;;6.83;2.80;;;13.90;99.90;;;;;;4903530;29;20578;-63
2022/04/22 07:54:28;;;;;;;4.23;2.93;;;14.30;99.90;;;;;;4896249;29;20244;-63
2022/04/22 07:56:58;;;;;;;5.13;2.80;;;14.10;99.90;;;;;;4896859;29;20240;-63
2022/04/22 07:59:28;;;;;;;5.93;2.83;;;14.00;99.90;;;;;;4900212;29;20252;-63
2022/04/22 08:01:58;;;;;;;3.93;2.87;;;14.10;99.90;;;;;;4898385;29;20279;-63
2022/04/22 08:04:27;;;;;;;5.77;3.07;;;14.20;99.90;;;;;;4890336;29;20240;-63
2022/04/22 08:06:56;;;;;;;5.83;2.90;;;14.60;99.90;;;;;;4888876;29;20309;-63
2022/04/22 08:09:45;;;;;;;4.03;2.80;;;14.50;99.90;;;;;;4889494;29;20611;-63
2022/04/22 08:12:16;;;;;;;4.73;2.57;;;14.50;99.90;;;;;;4903057;29;20247;-63
2022/04/22 08:14:44;;;;;;;4.97;2.73;;;14.70;99.90;;;;;;4903055;29;20259;-63
2022/04/22 08:17:12;;;;;;;8.30;3.17;;;14.40;99.90;;;;;;4899451;29;20255;-63
2022/04/22 08:19:43;;;;;;;4.60;2.90;;;14.50;99.90;;;;;;4900322;29;20287;-63
2022/04/22 08:22:12;;;;;;;6.17;2.90;;;14.60;99.90;;;;;;4902797;29;20244;-63
2022/04/22 08:24:40;;;;;;;5.00;2.63;;;15.00;99.90;;;;;;4890879;29;20297;-64
2022/04/22 08:27:08;;;;;;;6.77;3.10;;;14.90;99.90;;;;;;4896805;29;20237;-64
2022/04/22 08:29:38;;;;;;;4.50;2.60;;;15.10;99.90;;;;;;4903369;29;20325;-63
2022/04/22 08:32:07;;;;;;;7.83;2.83;;;15.50;99.90;;;;;;4901020;29;20606;-63
2022/04/22 08:34:35;;;;;;;5.07;2.40;;;15.80;99.90;;;;;;4895826;29;20264;-63
2022/04/22 08:37:03;;;;;;;4.27;2.77;;;15.70;99.90;;;;;;4898334;29;20265;-63
2022/04/22 08:39:32;;;;;;;5.57;2.73;;;15.60;99.90;;;;;;4888014;29;20237;-63
2022/04/22 08:42:02;;;;;;;4.77;2.83;;;15.90;99.90;;;;;;4887632;29;20237;-63
2022/04/22 08:44:52;;;;;;;4.77;2.40;;;15.80;99.90;;;;;;4890629;29;20251;-63
2022/04/22 08:50:13;;;;;;;5.30;2.90;;;15.90;99.90;;;;;;4887273;29;20240;-63
2022/04/22 08:52:43;;;;;;;5.20;2.70;;;16.40;99.90;;;;;;4894207;29;20574;-63
2022/04/22 08:55:13;;;;;;;6.40;2.97;;;16.50;99.90;;;;;;4895994;29;20613;-63
2022/04/22 08:57:43;;;;;;;5.73;3.47;;;15.90;99.90;;;;;;4890426;29;20240;-64
2022/04/22 09:00:13;;;;;;;5.73;3.07;;;16.10;99.90;;;;;;4891243;29;20237;-64
2022/04/22 09:02:41;;;;;;;6.20;2.80;;;15.70;99.90;;;;;;4892410;29;20316;-63
2022/04/22 09:05:10;;;;;;;5.43;2.97;;;15.70;99.90;;;;;;4893059;29;20241;-64
2022/04/22 09:07:42;;;;;;;6.00;2.57;;;16.00;99.90;;;;;;4891466;29;20234;-63
2022/04/22 09:10:11;;;;;;;6.20;2.90;;;15.90;99.90;;;;;;4904940;29;20327;-63
2022/04/22 09:12:43;;;;;;;5.37;3.00;;;15.90;99.90;;;;;;4888752;29;20602;-63
2022/04/22 09:15:14;;;;;;;7.23;3.17;;;16.00;99.90;;;;;;4900664;29;20240;-63
2022/04/22 09:17:43;;;;;;;8.40;3.10;;;16.20;99.90;;;;;;4889422;29;20241;-64
2022/04/22 09:20:16;;;;;;;5.20;3.10;;;16.40;99.90;;;;;;5258603;23;20213;-62
2022/04/22 09:22:45;;;;;;;7.03;3.13;;;16.70;99.90;;;;;;4880239;29;20670;-62
2022/04/22 09:25:23;;;;;;;6.70;3.30;;;16.90;99.90;;;;;;4882106;29;20245;-62
2022/04/22 09:27:51;;;;;;;6.40;2.83;;;16.70;99.90;;;;;;4883960;29;20244;-62
2022/04/22 09:30:32;;;;;;;5.03;2.80;;;16.30;99.90;;;;;;4883611;29;20256;-62
2022/04/22 09:33:00;;;;;;;6.77;3.00;;;16.70;99.90;;;;;;4889384;29;20248;-62
2022/04/22 09:35:29;;;;;;;6.57;3.20;;;16.90;99.90;;;;;;4881094;29;20236;-62
2022/04/22 09:43:35;;;;;;;5.40;3.22;;;17.20;99.90;;;;;;4883562;29;20434;-59
2022/04/22 09:46:22;;;;;;;6.63;3.20;;;17.30;99.90;;;;;;4886880;29;20309;-63
2022/04/22 09:48:52;;;;;;;5.17;3.30;;;17.50;99.90;;;;;;4884771;29;20253;-63
2022/04/22 09:51:23;;;;;;;7.73;3.00;;;17.60;99.90;;;;;;4887940;29;20329;-63
2022/04/22 09:54:00;;;;;;;7.97;3.37;;;17.50;99.90;;;;;;4890309;29;20237;-63
2022/04/22 09:56:29;;;;;;;5.53;2.90;;;17.50;99.90;;;;;;4884769;29;20732;-63
2022/04/22 09:58:57;;;;;;;6.07;3.00;;;17.60;99.90;;;;;;4887593;29;20571;-64
2022/04/22 10:01:27;;;;;;;5.53;3.00;;;17.90;99.90;;;;;;4888555;29;20298;-63
2022/04/22 10:04:16;;;;;;;5.83;2.63;;;18.20;99.90;;;;;;4891400;29;20739;-63
2022/04/22 10:06:45;;;;;;;6.50;3.10;;;17.90;99.90;;;;;;4896707;29;20712;-63
2022/04/22 10:09:15;;;;;;;7.77;3.70;;;18.00;99.90;;;;;;4887218;29;20238;-63
2022/04/22 10:11:46;;;;;;;7.07;3.40;;;18.10;99.90;;;;;;4891425;29;20245;-63
2022/04/22 10:14:15;;;;;;;7.87;3.90;;;17.80;99.90;;;;;;4892432;29;20243;-63
2022/04/22 10:16:45;;;;;;;7.67;3.60;;;17.30;99.90;;;;;;4885629;29;20230;-63
2022/04/22 10:19:13;;;;;;;6.70;3.40;;;17.70;99.90;;;;;;4892326;29;20238;-63
2022/04/22 10:21:44;;;;;;;9.13;3.30;;;17.80;99.90;;;;;;4889924;29;20244;-63
2022/04/22 10:24:13;;;;;;;7.10;3.47;;;18.10;99.90;;;;;;4895048;29;20248;-63
2022/04/22 10:26:43;;;;;;;7.30;3.83;;;18.40;99.90;;;;;;4893892;29;20590;-63
2022/04/22 10:29:13;;;;;;;5.23;3.53;;;18.40;99.90;;;;;;4892614;29;20283;-63
2022/04/22 10:31:41;;;;;;;8.27;4.00;;;18.40;99.90;;;;;;4889688;29;20250;-63
2022/04/22 10:34:12;;;;;;;5.43;3.67;;;18.40;99.90;;;;;;4895169;29;20717;-63
2022/04/22 10:36:40;;;;;;;8.37;4.07;;;18.30;99.90;;;;;;4895911;29;20575;-62
2022/04/22 10:39:09;;;;;;;7.47;4.07;;;18.70;99.90;;;;;;4892523;29;20258;-62
2022/04/22 10:41:46;;;;;;;8.23;3.70;;;18.80;99.90;;;;;;4891842;29;20295;-62
2022/04/22 10:47:15;;;;;;;8.20;4.17;;;18.50;99.90;;;;;;4872327;29;20659;-62
2022/04/22 10:49:46;;;;;;;7.57;4.10;;;19.00;99.90;;;;;;4883229;29;20310;-62
2022/04/22 10:52:15;;;;;;;6.90;3.70;;;18.80;99.90;;;;;;4886538;29;20328;-62
2022/04/22 10:55:08;;;;;;;6.90;3.83;;;18.60;99.90;;;;;;4890615;29;20325;-62
2022/04/22 10:57:39;;;;;;;5.17;3.30;;;17.80;99.90;;;;;;4890567;29;20297;-61
2022/04/22 11:00:27;;;;;;;5.53;3.53;;;17.50;99.90;;;;;;4888784;29;20774;-61
2022/04/22 11:03:09;;;;;;;6.60;3.70;;;17.50;99.90;;;;;;4892896;29;20246;-62
2022/04/22 11:05:52;;;;;;;7.73;3.73;;;17.20;99.90;;;;;;4889237;29;20277;-62
2022/04/22 11:08:28;;;;;;;9.73;3.77;;;16.80;99.90;;;;;;4891577;29;20244;-62
2022/04/22 11:11:15;;;;;;;7.60;4.10;;;16.70;99.90;;;;;;4882060;29;20238;-62
2022/04/22 11:13:46;;;;;;;5.57;3.77;;;16.40;99.90;;;;;;4880132;29;20236;-62
2022/04/22 11:16:17;;;;;;;6.93;3.90;;;16.20;99.90;;;;;;4888901;29;20241;-62
2022/04/22 11:19:06;;;;;;;5.87;3.63;;;16.30;99.90;;;;;;4890360;29;20275;-62
2022/04/22 11:21:43;;;;;;;7.17;4.00;;;16.40;99.90;;;;;;4891451;29;20717;-62
2022/04/22 11:30:11;;;;;;;8.20;3.77;;;16.60;99.90;;;;;;5138933;23;20246;-64
2022/04/22 11:32:48;;;;;;;8.37;4.23;;;16.50;99.90;;;;;;4903923;29;20244;-64
2022/04/22 11:35:23;;;;;;;6.80;3.90;;;16.20;99.90;;;;;;4911869;29;20791;-64
2022/04/22 11:37:59;;;;;;;7.57;3.67;;;16.40;99.90;;;;;;4915451;29;20319;-64
2022/04/22 11:40:28;;;;;;;6.03;3.57;;;16.70;99.90;;;;;;4917125;29;20237;-64
2022/04/22 11:42:59;;;;;;;5.23;3.90;;;16.90;99.90;;;;;;4910821;29;20245;-63
2022/04/22 11:45:27;;;;;;;5.30;3.77;;;16.80;99.90;;;;;;4914943;29;20240;-64
2022/04/22 11:47:55;;;;;;;7.23;4.00;;;16.70;99.90;;;;;;4910457;29;20704;-64
2022/04/22 11:50:24;;;;;;;6.50;3.70;;;16.90;99.90;;;;;;4915555;29;20754;-64
2022/04/22 11:52:56;;;;;;;7.53;4.10;;;16.80;99.90;;;;;;4915731;29;20244;-64
2022/04/22 11:55:26;;;;;;;7.13;3.60;;;16.60;99.90;;;;;;4916029;29;20237;-64
2022/04/22 11:57:55;;;;;;;7.30;3.80;;;16.70;99.90;;;;;;4910261;29;20267;-64
2022/04/22 12:05:57;;;;;;;6.20;3.53;;;17.10;99.90;;;;;;4915633;29;20320;-64
2022/04/22 12:08:25;;;;;;;7.57;3.87;;;17.30;99.90;;;;;;4917902;29;20720;-64
2022/04/22 12:10:55;;;;;;;6.43;3.70;;;17.30;99.90;;;;;;4924336;29;20242;-62
2022/04/22 12:13:25;;;;;;;10.03;4.17;;;17.10;99.90;;;;;;4919016;29;20741;-62
2022/04/22 12:15:54;;;;;;;7.47;4.30;;;16.90;99.90;;;;;;4915104;29;20244;-62
2022/04/22 12:18:33;;;;;;;6.90;4.10;;;16.80;99.90;;;;;;4920641;29;20244;-61
2022/04/22 12:21:03;;;;;;;5.07;3.93;;;16.40;99.90;;;;;;4918323;29;20730;-61
2022/04/22 12:23:36;;;;;;;7.77;4.23;;;16.40;99.90;;;;;;4919927;29;20325;-62
2022/04/22 12:26:06;;;;;;;6.87;4.30;;;16.40;99.90;;;;;;4915542;29;20600;-62
2022/04/22 12:28:34;;;;;;;5.87;3.57;;;16.50;99.90;;;;;;4914433;29;20241;-62
2022/04/22 12:31:03;;;;;;;5.77;3.77;;;16.70;99.90;;;;;;4900380;29;20367;-62
2022/04/22 12:33:32;;;;;;;7.63;4.13;;;16.70;99.90;;;;;;4920291;29;20275;-62
2022/04/22 12:36:07;;;;;;;7.30;4.20;;;16.90;99.90;;;;;;4909734;29;20246;-62
2022/04/22 12:38:36;;;;;;;5.83;3.90;;;16.80;99.90;;;;;;4925738;29;20631;-62
2022/04/22 12:41:17;;;;;;;8.43;3.90;;;17.00;99.90;;;;;;4928293;29;20288;-62
2022/04/22 12:43:48;;;;;;;6.70;4.07;;;17.10;99.90;;;;;;4914507;29;20818;-62
2022/04/22 12:52:18;;;;;;;5.33;3.77;;;17.00;99.90;;;;;;4918479;29;20770;-62
2022/04/22 12:54:48;;;;;;;8.13;3.87;;;17.00;99.90;;;;;;4915785;29;20666;-62
2022/04/22 12:57:23;;;;;;;13.07;4.23;;;16.80;99.90;;;;;;4923244;29;20299;-62
2022/04/22 12:59:55;;;;;;;7.37;4.23;;;16.60;99.90;;;;;;4921590;29;20936;-62
2022/04/22 13:02:28;;;;;;;7.40;4.10;;;16.60;99.90;;;;;;4913312;29;20267;-62
2022/04/22 13:04:59;;;;;;;7.50;3.83;;;16.60;99.90;;;;;;4914789;29;20749;-62
2022/04/22 13:07:40;;;;;;;7.23;4.03;;;16.50;99.90;;;;;;4915451;29;20247;-62
2022/04/22 13:10:09;;;;;;;8.67;4.10;;;16.80;99.90;;;;;;4929259;29;20252;-62
2022/04/22 13:12:41;;;;;;;10.03;3.97;;;16.90;99.90;;;;;;4916311;29;20245;-62
2022/04/22 13:15:12;;;;;;;9.30;4.13;;;16.90;99.90;;;;;;4923495;29;20327;-62
2022/04/22 13:17:43;;;;;;;8.80;3.40;;;17.00;99.90;;;;;;4914642;29;20237;-62
2022/04/22 13:20:13;;;;;;;6.83;4.00;;;16.80;99.90;;;;;;4920082;29;20239;-62
2022/04/22 13:22:42;;;;;;;8.00;3.67;;;16.80;99.90;;;;;;4914829;29;20247;-62
2022/04/22 13:25:12;;;;;;;4.80;3.27;;;16.80;99.90;;;;;;4922326;29;20639;-62
2022/04/22 13:27:42;;;;;;;4.77;3.30;;;16.90;99.90;;;;;;4914147;29;20324;-62
2022/04/22 13:30:11;;;;;;;6.60;3.47;;;17.10;99.90;;;;;;4919636;29;20237;-62
2022/04/22 13:32:40;;;;;;;9.07;3.37;;;17.10;99.90;;;;;;4909217;29;20256;-62
2022/04/22 13:35:10;;;;;;;7.23;3.43;;;17.10;99.90;;;;;;4915286;29;20247;-62
2022/04/22 13:37:39;;;;;;;6.13;3.60;;;17.10;99.90;;;;;;4920116;29;20329;-62
2022/04/22 13:40:08;;;;;;;6.43;3.80;;;16.80;99.90;;;;;;4911936;29;20600;-62
2022/04/22 13:42:36;;;;;;;7.18;3.90;;;16.70;99.90;;;;;;4915897;29;20456;-63
2022/04/22 13:53:23;;;;;;;6.23;4.17;;;16.70;99.90;;;;;;4913817;29;20649;-63
2022/04/22 13:55:51;;;;;;;7.53;4.20;;;16.50;99.90;;;;;;4918898;29;20244;-63
2022/04/22 13:58:19;;;;;;;8.13;4.73;;;16.50;99.90;;;;;;4917211;29;20236;-64
2022/04/22 14:00:48;;;;;;;14.17;4.50;;;16.20;99.90;;;;;;4914396;29;20251;-64
2022/04/22 14:03:18;;;;;;;8.23;4.00;;;16.50;99.90;;;;;;4915260;29;20248;-64
2022/04/22 14:05:46;;;;;;;10.13;4.30;;;16.40;99.90;;;;;;4916091;29;20327;-62
2022/04/22 14:08:14;;;;;;;5.73;4.00;;;16.10;99.90;;;;;;4913702;29;20719;-62
2022/04/22 14:10:42;;;;;;;8.67;3.90;;;16.10;99.90;;;;;;4917701;29;20255;-64
2022/04/22 14:13:13;;;;;;;6.93;3.50;;;16.20;99.90;;;;;;4919434;29;20643;-65
2022/04/22 14:15:41;;;;;;;6.17;3.53;;;16.30;99.90;;;;;;4916776;29;20327;-65
2022/04/22 14:18:10;;;;;;;6.30;3.60;;;16.50;99.90;;;;;;4917474;29;20239;-65
2022/04/22 14:20:39;;;;;;;6.93;4.23;;;16.30;99.90;;;;;;4914529;29;20308;-65